sensor_id;sensor_type;location;lat;lon;timestamp;pressure;altitude;pressure_sealevel;temperature;humidity
26043;BME280;13818;52.156;5.382;2023-01-28T00:00:11;102725.59;;;3.77;100.00
26043;BME280;13818;52.156;5.382;2023-01-28T00:02:39;102722.97;;;3.80;100.00
26043;BME280;13818;52.156;5.382;2023-01-28T00:05:06;102729.13;;;3.81;100.00
26043;BME280;13818;52.156;5.382;2023-01-28T00:07:32;102732.50;;;3.69;100.00
26043;BME280;13818;52.156;5.382;2023-01-28T00:09:59;102741.34;;;3.71;100.00
26043;BME280;13818;52.156;5.382;2023-01-28T00:12:25;102738.66;;;3.69;100.00
26043;BME280;13818;52.156;5.382;2023-01-28T00:14:53;102742.13;;;3.65;100.00
26043;BME280;13818;52.156;5.382;2023-01-28T00:17:20;102743.81;;;3.60;100.00
26043;BME280;13818;52.156;5.382;2023-01-28T00:19:47;102743.81;;;3.60;100.00
26043;BME280;13818;52.156;5.382;2023-01-28T00:22:14;102743.88;;;3.63;100.00
26043;BME280;13818;52.156;5.382;2023-01-28T00:24:40;102734.97;;;3.55;100.00
26043;BME280;13818;52.156;5.382;2023-01-28T00:27:07;102738.47;;;3.55;100.00
26043;BME280;13818;52.156;5.382;2023-01-28T00:29:33;102742.88;;;3.56;100.00
26043;BME280;13818;52.156;5.382;2023-01-28T00:32:00;102740.88;;;3.37;100.00
26043;BME280;13818;52.156;5.382;2023-01-28T00:34:26;102743.56;;;3.41;100.00
26043;BME280;13818;52.156;5.382;2023-01-28T00:36:54;102737.38;;;3.39;100.00
26043;BME280;13818;52.156;5.382;2023-01-28T00:39:23;102738.16;;;3.32;100.00
26043;BME280;13818;52.156;5.382;2023-01-28T00:41:50;102740.69;;;3.26;100.00
26043;BME280;13818;52.156;5.382;2023-01-28T00:44:16;102740.91;;;3.41;100.00
26043;BME280;13818;52.156;5.382;2023-01-28T00:46:43;102741.94;;;3.53;100.00
26043;BME280;13818;52.156;5.382;2023-01-28T00:49:09;102743.69;;;3.51;100.00
26043;BME280;13818;52.156;5.382;2023-01-28T00:51:36;102736.66;;;3.51;100.00
26043;BME280;13818;52.156;5.382;2023-01-28T00:54:04;102744.53;;;3.48;100.00
26043;BME280;13818;52.156;5.382;2023-01-28T00:56:31;102744.56;;;3.50;100.00
26043;BME280;13818;52.156;5.382;2023-01-28T00:59:00;102738.47;;;3.55;100.00
26043;BME280;13818;52.156;5.382;2023-01-28T01:01:26;102738.41;;;3.49;100.00
26043;BME280;13818;52.156;5.382;2023-01-28T01:03:53;102727.97;;;3.57;100.00
26043;BME280;13818;52.156;5.382;2023-01-28T01:06:27;102730.44;;;3.45;100.00
26043;BME280;13818;52.156;5.382;2023-01-28T01:08:54;102723.22;;;3.33;100.00
26043;BME280;13818;52.156;5.382;2023-01-28T01:11:22;102721.47;;;3.33;100.00
26043;BME280;13818;52.156;5.382;2023-01-28T01:13:49;102726.53;;;3.18;100.00
26043;BME280;13818;52.156;5.382;2023-01-28T01:16:16;102721.09;;;3.05;100.00
26043;BME280;13818;52.156;5.382;2023-01-28T01:18:43;102723.81;;;3.12;100.00
26043;BME280;13818;52.156;5.382;2023-01-28T01:21:12;102729.22;;;3.21;100.00
26043;BME280;13818;52.156;5.382;2023-01-28T01:23:39;102726.59;;;3.24;100.00
26043;BME280;13818;52.156;5.382;2023-01-28T01:26:06;102730.28;;;3.35;100.00
26043;BME280;13818;52.156;5.382;2023-01-28T01:28:34;102724.97;;;3.31;100.00
26043;BME280;13818;52.156;5.382;2023-01-28T01:31:03;102734.38;;;3.15;100.00
26043;BME280;13818;52.156;5.382;2023-01-28T01:33:30;102732.75;;;3.23;100.00
26043;BME280;13818;52.156;5.382;2023-01-28T01:35:57;102737.13;;;3.22;100.00
26043;BME280;13818;52.156;5.382;2023-01-28T01:38:24;102732.50;;;3.07;100.00
26043;BME280;13818;52.156;5.382;2023-01-28T01:40:50;102725.41;;;3.00;100.00
26043;BME280;13818;52.156;5.382;2023-01-28T01:43:19;102732.66;;;3.17;100.00
26043;BME280;13818;52.156;5.382;2023-01-28T01:45:49;102727.63;;;3.34;100.00
26043;BME280;13818;52.156;5.382;2023-01-28T01:48:20;102738.16;;;3.31;100.00
26043;BME280;13818;52.156;5.382;2023-01-28T01:50:51;102748.69;;;3.32;100.00
26043;BME280;13818;52.156;5.382;2023-01-28T01:53:21;102754.00;;;3.35;100.00
26043;BME280;13818;52.156;5.382;2023-01-28T01:55:49;102746.63;;;3.13;100.00
26043;BME280;13818;52.156;5.382;2023-01-28T01:58:20;102746.53;;;3.05;100.00
26043;BME280;13818;52.156;5.382;2023-01-28T02:00:50;102742.25;;;3.12;100.00
26043;BME280;13818;52.156;5.382;2023-01-28T02:03:21;102744.00;;;3.11;100.00
26043;BME280;13818;52.156;5.382;2023-01-28T02:05:51;102747.25;;;2.96;100.00
26043;BME280;13818;52.156;5.382;2023-01-28T02:08:17;102754.38;;;3.00;100.00
26043;BME280;13818;52.156;5.382;2023-01-28T02:10:49;102757.97;;;3.05;100.00
26043;BME280;13818;52.156;5.382;2023-01-28T02:13:18;102750.25;;;3.18;100.00
26043;BME280;13818;52.156;5.382;2023-01-28T02:15:46;102741.41;;;3.14;100.00
26043;BME280;13818;52.156;5.382;2023-01-28T02:18:15;102743.13;;;3.12;100.00
26043;BME280;13818;52.156;5.382;2023-01-28T02:21:17;102746.75;;;3.19;100.00
26043;BME280;13818;52.156;5.382;2023-01-28T02:23:59;102748.50;;;3.20;100.00
26043;BME280;13818;52.156;5.382;2023-01-28T02:26:41;102750.31;;;3.24;100.00
26043;BME280;13818;52.156;5.382;2023-01-28T02:29:18;102760.94;;;3.27;100.00
26043;BME280;13818;52.156;5.382;2023-01-28T02:31:53;102762.63;;;3.23;100.00
26043;BME280;13818;52.156;5.382;2023-01-28T02:34:29;102760.91;;;3.25;100.00
26043;BME280;13818;52.156;5.382;2023-01-28T02:37:02;102756.53;;;3.28;100.00
26043;BME280;13818;52.156;5.382;2023-01-28T02:39:33;102763.59;;;3.30;100.00
26043;BME280;13818;52.156;5.382;2023-01-28T02:42:03;102762.75;;;3.31;100.00
26043;BME280;13818;52.156;5.382;2023-01-28T02:44:32;102755.88;;;3.42;100.00
26043;BME280;13818;52.156;5.382;2023-01-28T02:46:59;102773.34;;;3.34;100.00
26043;BME280;13818;52.156;5.382;2023-01-28T02:49:47;102763.88;;;3.47;100.00
26043;BME280;13818;52.156;5.382;2023-01-28T02:52:24;102766.13;;;3.24;100.00
26043;BME280;13818;52.156;5.382;2023-01-28T02:55:12;102771.47;;;3.25;100.00
26043;BME280;13818;52.156;5.382;2023-01-28T02:57:47;102762.75;;;3.31;100.00
26043;BME280;13818;52.156;5.382;2023-01-28T03:00:22;102759.97;;;3.22;100.00
26043;BME280;13818;52.156;5.382;2023-01-28T03:02:57;102754.69;;;3.20;100.00
26043;BME280;13818;52.156;5.382;2023-01-28T03:05:27;102741.38;;;3.13;100.00
26043;BME280;13818;52.156;5.382;2023-01-28T03:07:56;102752.97;;;3.24;100.00
26043;BME280;13818;52.156;5.382;2023-01-28T03:10:24;102748.59;;;3.26;100.00
26043;BME280;13818;52.156;5.382;2023-01-28T03:12:53;102745.88;;;3.20;100.00
26043;BME280;13818;52.156;5.382;2023-01-28T03:15:43;102749.16;;;3.03;100.00
26043;BME280;13818;52.156;5.382;2023-01-28T03:18:32;102751.69;;;2.97;100.00
26043;BME280;13818;52.156;5.382;2023-01-28T03:21:21;102748.31;;;3.06;100.00
26043;BME280;13818;52.156;5.382;2023-01-28T03:24:11;102753.47;;;3.00;100.00
26043;BME280;13818;52.156;5.382;2023-01-28T03:27:02;102751.56;;;2.91;100.00
26043;BME280;13818;52.156;5.382;2023-01-28T03:29:51;102757.13;;;3.06;100.00
26043;BME280;13818;52.156;5.382;2023-01-28T03:32:40;102752.59;;;2.98;100.00
26043;BME280;13818;52.156;5.382;2023-01-28T03:35:28;102753.47;;;3.00;100.00
26043;BME280;13818;52.156;5.382;2023-01-28T03:38:14;102748.38;;;3.09;100.00
26043;BME280;13818;52.156;5.382;2023-01-28T03:40:50;102762.28;;;3.00;100.00
26043;BME280;13818;52.156;5.382;2023-01-28T03:43:17;102748.19;;;3.00;100.00
26043;BME280;13818;52.156;5.382;2023-01-28T03:45:44;102751.88;;;3.09;100.00
26043;BME280;13818;52.156;5.382;2023-01-28T03:48:17;102750.72;;;2.93;100.00
26043;BME280;13818;52.156;5.382;2023-01-28T03:50:43;102747.09;;;2.85;100.00
26043;BME280;13818;52.156;5.382;2023-01-28T03:53:10;102749.50;;;2.70;100.00
26043;BME280;13818;52.156;5.382;2023-01-28T03:55:40;102760.34;;;2.90;100.00
26043;BME280;13818;52.156;5.382;2023-01-28T03:58:06;102763.06;;;2.96;100.00
26043;BME280;13818;52.156;5.382;2023-01-28T04:00:33;102750.06;;;3.05;100.00
26043;BME280;13818;52.156;5.382;2023-01-28T04:03:02;102750.06;;;3.05;100.00
26043;BME280;13818;52.156;5.382;2023-01-28T04:05:30;102757.28;;;3.19;100.00
26043;BME280;13818;52.156;5.382;2023-01-28T04:07:56;102757.91;;;3.02;100.00
26043;BME280;13818;52.156;5.382;2023-01-28T04:10:22;102754.63;;;3.17;100.00
26043;BME280;13818;52.156;5.382;2023-01-28T04:12:49;102760.28;;;2.87;100.00
26043;BME280;13818;52.156;5.382;2023-01-28T04:15:18;102768.38;;;2.98;100.00
26043;BME280;13818;52.156;5.382;2023-01-28T04:17:45;102773.78;;;3.05;100.00
26043;BME280;13818;52.156;5.382;2023-01-28T04:20:12;102771.03;;;2.99;100.00
26043;BME280;13818;52.156;5.382;2023-01-28T04:22:40;102763.91;;;2.93;100.00
26043;BME280;13818;52.156;5.382;2023-01-28T04:25:08;102777.19;;;3.01;100.00
26043;BME280;13818;52.156;5.382;2023-01-28T04:27:34;102781.63;;;3.02;100.00
26043;BME280;13818;52.156;5.382;2023-01-28T04:30:01;102789.63;;;3.08;100.00
26043;BME280;13818;52.156;5.382;2023-01-28T04:32:28;102785.78;;;2.88;100.00
26043;BME280;13818;52.156;5.382;2023-01-28T04:34:54;102785.06;;;2.97;100.00
26043;BME280;13818;52.156;5.382;2023-01-28T04:37:21;102780.53;;;2.89;100.00
26043;BME280;13818;52.156;5.382;2023-01-28T04:39:48;102796.94;;;2.74;100.00
26043;BME280;13818;52.156;5.382;2023-01-28T04:42:15;102789.06;;;2.76;100.00
26043;BME280;13818;52.156;5.382;2023-01-28T04:44:41;102783.75;;;2.71;100.00
26043;BME280;13818;52.156;5.382;2023-01-28T04:47:08;102782.97;;;2.79;100.00
26043;BME280;13818;52.156;5.382;2023-01-28T04:49:34;102783.16;;;2.89;100.00
26043;BME280;13818;52.156;5.382;2023-01-28T04:52:00;102780.72;;;3.00;100.00
26043;BME280;13818;52.156;5.382;2023-01-28T04:54:27;102786.00;;;3.02;100.00
26043;BME280;13818;52.156;5.382;2023-01-28T04:56:55;102772.94;;;3.06;100.00
26043;BME280;13818;52.156;5.382;2023-01-28T04:59:21;102769.47;;;3.11;100.00
26043;BME280;13818;52.156;5.382;2023-01-28T05:01:49;102770.31;;;3.09;100.00
26043;BME280;13818;52.156;5.382;2023-01-28T05:04:15;102766.84;;;3.11;100.00
26043;BME280;13818;52.156;5.382;2023-01-28T05:06:42;102761.56;;;3.12;100.00
26043;BME280;13818;52.156;5.382;2023-01-28T05:09:08;102770.53;;;3.23;100.00
26043;BME280;13818;52.156;5.382;2023-01-28T05:11:35;102769.69;;;3.24;100.00
26043;BME280;13818;52.156;5.382;2023-01-28T05:14:03;102775.72;;;3.17;100.00
26043;BME280;13818;52.156;5.382;2023-01-28T05:16:29;102767.72;;;3.13;100.00
26043;BME280;13818;52.156;5.382;2023-01-28T05:18:58;102765.06;;;3.11;100.00
26043;BME280;13818;52.156;5.382;2023-01-28T05:21:25;102765.88;;;3.05;100.00
26043;BME280;13818;52.156;5.382;2023-01-28T05:23:51;102759.66;;;3.00;100.00
26043;BME280;13818;52.156;5.382;2023-01-28T05:26:18;102768.44;;;3.01;100.00
26043;BME280;13818;52.156;5.382;2023-01-28T05:28:44;102759.53;;;2.92;100.00
26043;BME280;13818;52.156;5.382;2023-01-28T05:31:12;102767.38;;;2.91;100.00
26043;BME280;13818;52.156;5.382;2023-01-28T05:33:38;102768.16;;;2.84;100.00
26043;BME280;13818;52.156;5.382;2023-01-28T05:36:05;102764.53;;;2.79;100.00
26043;BME280;13818;52.156;5.382;2023-01-28T05:38:32;102769.53;;;2.63;100.00
26043;BME280;13818;52.156;5.382;2023-01-28T05:40:58;102771.47;;;2.73;100.00
26043;BME280;13818;52.156;5.382;2023-01-28T05:43:25;102765.00;;;2.56;100.00
26043;BME280;13818;52.156;5.382;2023-01-28T05:45:52;102772.34;;;2.72;100.00
26043;BME280;13818;52.156;5.382;2023-01-28T05:48:20;102767.16;;;2.77;100.00
26043;BME280;13818;52.156;5.382;2023-01-28T05:50:46;102772.50;;;2.80;100.00
26043;BME280;13818;52.156;5.382;2023-01-28T05:53:13;102764.88;;;2.99;100.00
26043;BME280;13818;52.156;5.382;2023-01-28T05:55:39;102770.91;;;2.91;100.00
26043;BME280;13818;52.156;5.382;2023-01-28T05:58:06;102770.00;;;2.91;100.00
26043;BME280;13818;52.156;5.382;2023-01-28T06:00:32;102776.25;;;2.96;100.00
26043;BME280;13818;52.156;5.382;2023-01-28T06:02:59;102764.09;;;3.04;100.00
26043;BME280;13818;52.156;5.382;2023-01-28T06:05:26;102770.13;;;2.99;100.00
26043;BME280;13818;52.156;5.382;2023-01-28T06:07:53;102769.19;;;2.93;100.00
26043;BME280;13818;52.156;5.382;2023-01-28T06:10:19;102763.69;;;2.80;100.00
26043;BME280;13818;52.156;5.382;2023-01-28T06:12:46;102772.53;;;2.83;100.00
26043;BME280;13818;52.156;5.382;2023-01-28T06:15:12;102771.81;;;2.44;100.00
26043;BME280;13818;52.156;5.382;2023-01-28T06:17:38;102767.56;;;2.50;100.00
26043;BME280;13818;52.156;5.382;2023-01-28T06:20:05;102766.91;;;2.63;100.00
26043;BME280;13818;52.156;5.382;2023-01-28T06:22:34;102764.16;;;2.55;100.00
26043;BME280;13818;52.156;5.382;2023-01-28T06:25:00;102769.63;;;2.66;100.00
26043;BME280;13818;52.156;5.382;2023-01-28T06:27:27;102775.13;;;2.80;100.00
26043;BME280;13818;52.156;5.382;2023-01-28T06:29:54;102766.88;;;2.60;100.00
26043;BME280;13818;52.156;5.382;2023-01-28T06:32:21;102773.19;;;2.70;100.00
26043;BME280;13818;52.156;5.382;2023-01-28T06:34:47;102770.50;;;2.68;100.00
26043;BME280;13818;52.156;5.382;2023-01-28T06:37:14;102781.03;;;2.68;100.00
26043;BME280;13818;52.156;5.382;2023-01-28T06:39:42;102785.31;;;2.62;100.00
26043;BME280;13818;52.156;5.382;2023-01-28T06:42:08;102794.69;;;2.47;100.00
26043;BME280;13818;52.156;5.382;2023-01-28T06:44:35;102792.13;;;2.49;100.00
26043;BME280;13818;52.156;5.382;2023-01-28T06:47:01;102781.50;;;2.44;100.00
26043;BME280;13818;52.156;5.382;2023-01-28T06:49:28;102794.53;;;2.39;100.00
26043;BME280;13818;52.156;5.382;2023-01-28T06:51:54;102796.03;;;2.25;100.00
26043;BME280;13818;52.156;5.382;2023-01-28T06:54:21;102791.91;;;2.38;100.00
26043;BME280;13818;52.156;5.382;2023-01-28T06:56:48;102801.63;;;2.42;100.00
26043;BME280;13818;52.156;5.382;2023-01-28T06:59:15;102814.75;;;2.40;100.00
26043;BME280;13818;52.156;5.382;2023-01-28T07:01:41;102822.72;;;2.43;100.00
26043;BME280;13818;52.156;5.382;2023-01-28T07:04:08;102817.59;;;2.51;100.00
26043;BME280;13818;52.156;5.382;2023-01-28T07:06:35;102809.97;;;2.65;100.00
26043;BME280;13818;52.156;5.382;2023-01-28T07:09:01;102809.00;;;2.60;100.00
26043;BME280;13818;52.156;5.382;2023-01-28T07:11:27;102807.34;;;2.65;100.00
26043;BME280;13818;52.156;5.382;2023-01-28T07:13:55;102789.66;;;2.59;100.00
26043;BME280;13818;52.156;5.382;2023-01-28T07:16:22;102802.03;;;2.64;100.00
26043;BME280;13818;52.156;5.382;2023-01-28T07:18:48;102809.06;;;2.65;100.00
26043;BME280;13818;52.156;5.382;2023-01-28T07:21:15;102815.22;;;2.64;100.00
26043;BME280;13818;52.156;5.382;2023-01-28T07:23:42;102812.34;;;2.51;100.00
26043;BME280;13818;52.156;5.382;2023-01-28T07:26:08;102809.88;;;2.62;100.00
26043;BME280;13818;52.156;5.382;2023-01-28T07:28:35;102812.53;;;2.62;100.00
26043;BME280;13818;52.156;5.382;2023-01-28T07:31:03;102813.09;;;2.46;100.00
26043;BME280;13818;52.156;5.382;2023-01-28T07:33:29;102818.28;;;2.41;100.00
26043;BME280;13818;52.156;5.382;2023-01-28T07:35:55;102826.69;;;2.23;100.00
26043;BME280;13818;52.156;5.382;2023-01-28T07:38:22;102829.72;;;2.43;100.00
26043;BME280;13818;52.156;5.382;2023-01-28T07:40:48;102836.78;;;2.46;100.00
26043;BME280;13818;52.156;5.382;2023-01-28T07:43:15;102821.03;;;2.47;100.00
26043;BME280;13818;52.156;5.382;2023-01-28T07:45:41;102831.78;;;2.59;100.00
26043;BME280;13818;52.156;5.382;2023-01-28T07:48:11;102833.53;;;2.57;100.00
26043;BME280;13818;52.156;5.382;2023-01-28T07:50:39;102831.97;;;2.69;100.00
26043;BME280;13818;52.156;5.382;2023-01-28T07:53:07;102843.38;;;2.69;100.00
26043;BME280;13818;52.156;5.382;2023-01-28T07:55:35;102842.69;;;2.78;100.00
26043;BME280;13818;52.156;5.382;2023-01-28T07:58:03;102835.03;;;2.93;100.00
26043;BME280;13818;52.156;5.382;2023-01-28T08:00:31;102839.53;;;2.98;100.00
26043;BME280;13818;52.156;5.382;2023-01-28T08:03:00;102837.84;;;3.03;100.00
26043;BME280;13818;52.156;5.382;2023-01-28T08:05:35;102841.25;;;2.97;100.00
26043;BME280;13818;52.156;5.382;2023-01-28T08:08:05;102831.78;;;3.07;100.00
26043;BME280;13818;52.156;5.382;2023-01-28T08:10:32;102832.63;;;3.07;100.00
26043;BME280;13818;52.156;5.382;2023-01-28T08:12:58;102830.91;;;3.08;100.00
26043;BME280;13818;52.156;5.382;2023-01-28T08:15:25;102831.56;;;2.96;100.00
26043;BME280;13818;52.156;5.382;2023-01-28T08:17:53;102842.31;;;3.07;100.00
26043;BME280;13818;52.156;5.382;2023-01-28T08:20:20;102837.03;;;3.05;100.00
26043;BME280;13818;52.156;5.382;2023-01-28T08:22:48;102846.28;;;2.85;100.00
26043;BME280;13818;52.156;5.382;2023-01-28T08:25:14;102847.31;;;2.91;100.00
26043;BME280;13818;52.156;5.382;2023-01-28T08:27:41;102854.03;;;2.75;100.00
26043;BME280;13818;52.156;5.382;2023-01-28T08:30:09;102846.19;;;2.79;100.00
26043;BME280;13818;52.156;5.382;2023-01-28T08:32:35;102855.81;;;2.75;100.00
26043;BME280;13818;52.156;5.382;2023-01-28T08:35:02;102851.44;;;2.77;100.00
26043;BME280;13818;52.156;5.382;2023-01-28T08:37:29;102858.47;;;2.76;100.00
26043;BME280;13818;52.156;5.382;2023-01-28T08:39:57;102868.97;;;2.75;100.00
26043;BME280;13818;52.156;5.382;2023-01-28T08:42:23;102860.00;;;2.65;100.00
26043;BME280;13818;52.156;5.382;2023-01-28T08:44:50;102853.94;;;2.69;100.00
26043;BME280;13818;52.156;5.382;2023-01-28T08:47:25;102862.09;;;2.85;100.00
26043;BME280;13818;52.156;5.382;2023-01-28T08:49:51;102869.34;;;2.95;100.00
26043;BME280;13818;52.156;5.382;2023-01-28T08:52:17;102887.94;;;2.58;100.00
26043;BME280;13818;52.156;5.382;2023-01-28T08:54:44;102885.75;;;2.80;100.00
26043;BME280;13818;52.156;5.382;2023-01-28T08:57:11;102884.38;;;3.02;100.00
26043;BME280;13818;52.156;5.382;2023-01-28T08:59:38;102879.19;;;3.05;100.00
26043;BME280;13818;52.156;5.382;2023-01-28T09:02:12;102884.91;;;3.32;100.00
26043;BME280;13818;52.156;5.382;2023-01-28T09:04:38;102889.38;;;3.37;100.00
26043;BME280;13818;52.156;5.382;2023-01-28T09:07:06;102885.06;;;3.42;100.00
26043;BME280;13818;52.156;5.382;2023-01-28T09:09:33;102875.28;;;3.35;100.00
26043;BME280;13818;52.156;5.382;2023-01-28T09:12:00;102878.69;;;3.27;100.00
26043;BME280;13818;52.156;5.382;2023-01-28T09:14:28;102879.03;;;3.50;100.00
26043;BME280;13818;52.156;5.382;2023-01-28T09:16:54;102889.50;;;3.45;100.00
26043;BME280;13818;52.156;5.382;2023-01-28T09:19:21;102893.38;;;3.66;100.00
26043;BME280;13818;52.156;5.382;2023-01-28T09:21:47;102891.78;;;3.79;100.00
26043;BME280;13818;52.156;5.382;2023-01-28T09:24:13;102893.41;;;3.70;100.00
26043;BME280;13818;52.156;5.382;2023-01-28T09:26:40;102899.81;;;3.85;100.00
26043;BME280;13818;52.156;5.382;2023-01-28T09:29:08;102903.09;;;3.71;100.00
26043;BME280;13818;52.156;5.382;2023-01-28T09:31:36;102906.50;;;3.64;100.00
26043;BME280;13818;52.156;5.382;2023-01-28T09:34:02;102903.09;;;3.70;100.00
26043;BME280;13818;52.156;5.382;2023-01-28T09:36:29;102904.28;;;3.92;100.00
26043;BME280;13818;52.156;5.382;2023-01-28T09:38:56;102912.44;;;4.06;100.00
26043;BME280;13818;52.156;5.382;2023-01-28T09:41:25;102913.31;;;4.08;100.00
26043;BME280;13818;52.156;5.382;2023-01-28T09:44:03;102911.66;;;4.15;100.00
26043;BME280;13818;52.156;5.382;2023-01-28T09:46:32;102909.81;;;4.07;100.00
26043;BME280;13818;52.156;5.382;2023-01-28T09:49:03;102909.22;;;3.69;100.00
26043;BME280;13818;52.156;5.382;2023-01-28T09:51:33;102908.69;;;3.91;100.00
26043;BME280;13818;52.156;5.382;2023-01-28T09:54:05;102912.03;;;3.80;100.00
26043;BME280;13818;52.156;5.382;2023-01-28T09:56:40;102901.44;;;3.78;100.00
26043;BME280;13818;52.156;5.382;2023-01-28T09:59:16;102910.34;;;3.85;100.00
26043;BME280;13818;52.156;5.382;2023-01-28T10:01:48;102923.44;;;3.79;100.00
26043;BME280;13818;52.156;5.382;2023-01-28T10:04:26;102926.97;;;3.81;100.00
26043;BME280;13818;52.156;5.382;2023-01-28T10:07:09;102924.50;;;3.88;100.00
26043;BME280;13818;52.156;5.382;2023-01-28T10:09:43;102923.75;;;3.97;100.00
26043;BME280;13818;52.156;5.382;2023-01-28T10:12:42;102925.06;;;3.69;100.00
26043;BME280;13818;52.156;5.382;2023-01-28T10:15:28;102922.84;;;3.98;100.00
26043;BME280;13818;52.156;5.382;2023-01-28T10:18:01;102917.91;;;4.20;100.00
26043;BME280;13818;52.156;5.382;2023-01-28T10:20:32;102918.69;;;4.16;100.00
26043;BME280;13818;52.156;5.382;2023-01-28T10:23:05;102905.50;;;4.16;100.00
26043;BME280;13818;52.156;5.382;2023-01-28T10:25:36;102904.00;;;4.35;100.00
26043;BME280;13818;52.156;5.382;2023-01-28T10:28:21;102915.38;;;4.31;100.00
26043;BME280;13818;52.156;5.382;2023-01-28T10:30:50;102910.28;;;4.45;100.00
26043;BME280;13818;52.156;5.382;2023-01-28T10:33:19;102906.88;;;4.55;100.00
26043;BME280;13818;52.156;5.382;2023-01-28T10:35:49;102906.88;;;4.55;100.00
26043;BME280;13818;52.156;5.382;2023-01-28T10:38:19;102908.59;;;4.50;100.00
26043;BME280;13818;52.156;5.382;2023-01-28T10:40:46;102910.13;;;4.32;100.00
26043;BME280;13818;52.156;5.382;2023-01-28T10:43:14;102907.66;;;4.45;100.00
26043;BME280;13818;52.156;5.382;2023-01-28T10:45:44;102894.06;;;4.14;100.00
26043;BME280;13818;52.156;5.382;2023-01-28T10:48:16;102886.50;;;3.77;100.00
26043;BME280;13818;52.156;5.382;2023-01-28T10:50:51;102894.81;;;4.05;100.00
26043;BME280;13818;52.156;5.382;2023-01-28T10:53:17;102883.41;;;4.07;100.00
26043;BME280;13818;52.156;5.382;2023-01-28T10:55:49;102887.19;;;4.28;100.00
26043;BME280;13818;52.156;5.382;2023-01-28T10:58:17;102874.16;;;4.40;100.00
26043;BME280;13818;52.156;5.382;2023-01-28T11:00:51;102869.03;;;4.56;100.00
26043;BME280;13818;52.156;5.382;2023-01-28T11:03:19;102851.31;;;4.46;100.00
26043;BME280;13818;52.156;5.382;2023-01-28T11:05:51;102852.25;;;4.49;100.00
26043;BME280;13818;52.156;5.382;2023-01-28T11:08:19;102845.09;;;4.39;100.00
26043;BME280;13818;52.156;5.382;2023-01-28T11:10:47;102839.91;;;4.48;100.00
26043;BME280;13818;52.156;5.382;2023-01-28T11:13:16;102842.59;;;4.51;100.00
26043;BME280;13818;52.156;5.382;2023-01-28T11:15:50;102834.78;;;4.64;100.00
26043;BME280;13818;52.156;5.382;2023-01-28T11:18:20;102825.06;;;4.60;100.00
26043;BME280;13818;52.156;5.382;2023-01-28T11:20:52;102807.56;;;4.68;100.00
26043;BME280;13818;52.156;5.382;2023-01-28T11:23:23;102799.75;;;4.82;100.00
26043;BME280;13818;52.156;5.382;2023-01-28T11:25:59;102809.22;;;4.61;100.00
26043;BME280;13818;52.156;5.382;2023-01-28T11:28:26;102805.78;;;4.71;100.00
26043;BME280;13818;52.156;5.382;2023-01-28T11:30:55;102793.56;;;4.80;100.00
26043;BME280;13818;52.156;5.382;2023-01-28T11:33:28;102787.16;;;4.53;100.00
26043;BME280;13818;52.156;5.382;2023-01-28T11:36:05;102789.19;;;4.82;100.00
26043;BME280;13818;52.156;5.382;2023-01-28T11:38:32;102781.28;;;4.85;100.00
26043;BME280;13818;52.156;5.382;2023-01-28T11:40:58;102770.91;;;5.08;100.00
26043;BME280;13818;52.156;5.382;2023-01-28T11:43:35;102774.53;;;5.24;100.00
26043;BME280;13818;52.156;5.382;2023-01-28T11:46:11;102769.94;;;5.03;100.00
26043;BME280;13818;52.156;5.382;2023-01-28T11:48:50;102780.63;;;5.11;100.00
26043;BME280;13818;52.156;5.382;2023-01-28T11:51:31;102788.56;;;5.17;100.00
26043;BME280;13818;52.156;5.382;2023-01-28T11:54:10;102792.13;;;5.19;100.00
26043;BME280;13818;52.156;5.382;2023-01-28T11:56:54;102801.09;;;5.41;100.00
26043;BME280;13818;52.156;5.382;2023-01-28T11:59:41;102808.03;;;5.27;100.00
26043;BME280;13818;52.156;5.382;2023-01-28T12:02:21;102808.03;;;5.25;100.00
26043;BME280;13818;52.156;5.382;2023-01-28T12:05:08;102814.25;;;5.32;100.00
26043;BME280;13818;52.156;5.382;2023-01-28T12:07:44;102795.81;;;5.40;100.00
26043;BME280;13818;52.156;5.382;2023-01-28T12:10:18;102804.44;;;5.17;100.00
26043;BME280;13818;52.156;5.382;2023-01-28T12:13:00;102807.16;;;5.26;100.00
26043;BME280;13818;52.156;5.382;2023-01-28T12:15:57;102818.69;;;5.36;100.00
26043;BME280;13818;52.156;5.382;2023-01-28T12:18:45;102810.78;;;5.37;100.00
26043;BME280;13818;52.156;5.382;2023-01-28T12:21:24;102821.34;;;5.39;100.00
26043;BME280;13818;52.156;5.382;2023-01-28T12:24:02;102823.13;;;5.38;100.00
26043;BME280;13818;52.156;5.382;2023-01-28T12:26:39;102815.91;;;5.17;100.00
26043;BME280;13818;52.156;5.382;2023-01-28T12:29:20;102821.31;;;5.31;100.00
26043;BME280;13818;52.156;5.382;2023-01-28T12:32:02;102814.25;;;5.32;100.00
26043;BME280;13818;52.156;5.382;2023-01-28T12:34:53;102799.94;;;5.05;100.00
26043;BME280;13818;52.156;5.382;2023-01-28T12:37:30;102792.81;;;4.96;100.00
26043;BME280;13818;52.156;5.382;2023-01-28T12:40:11;102798.94;;;4.91;100.00
26043;BME280;13818;52.156;5.382;2023-01-28T12:42:46;102795.16;;;4.64;100.00
26043;BME280;13818;52.156;5.382;2023-01-28T12:45:16;102797.97;;;4.82;100.00
26043;BME280;13818;52.156;5.382;2023-01-28T12:47:48;102790.13;;;4.92;100.00
26043;BME280;13818;52.156;5.382;2023-01-28T12:50:19;102779.53;;;4.90;100.00
26043;BME280;13818;52.156;5.382;2023-01-28T12:52:49;102777.88;;;4.97;100.00
26043;BME280;13818;52.156;5.382;2023-01-28T12:55:21;102773.59;;;5.16;100.00
26043;BME280;13818;52.156;5.382;2023-01-28T12:57:55;102771.91;;;5.27;100.00
26043;BME280;13818;52.156;5.382;2023-01-28T13:00:25;102760.56;;;5.42;100.00
26043;BME280;13818;52.156;5.382;2023-01-28T13:03:01;102760.56;;;5.47;100.00
26043;BME280;13818;52.156;5.382;2023-01-28T13:05:34;102750.06;;;5.61;100.00